Time;durP1;ratioP1;P1;durP2;ratioP2;P2;SDS_P1;SDS_P2;PMS_P1;PMS_P2;Temp;Humidity;BMP_temperature;BMP_pressure;BME280_temperature;BME280_humidity;BME280_pressure;Samples;Min_cycle;Max_cycle;Signal;HPM_P1;HPM_P2
2021/01/22 00:00:49;;;;;;;1.77;0.90;;;11.40;99.90;;;;;;4997437;28;20197;-73
2021/01/22 00:03:15;;;;;;;2.60;1.00;;;11.40;99.90;;;;;;4997211;28;20173;-73
2021/01/22 00:05:40;;;;;;;2.40;1.10;;;11.40;99.90;;;;;;4997420;28;20177;-72
2021/01/22 00:08:06;;;;;;;1.73;0.73;;;11.50;99.90;;;;;;4997438;28;20173;-72
2021/01/22 00:10:31;;;;;;;1.20;0.70;;;11.30;99.90;;;;;;4997381;28;20201;-71
2021/01/22 00:12:57;;;;;;;1.50;0.83;;;11.40;99.90;;;;;;4997589;28;20173;-71
2021/01/22 00:15:22;;;;;;;3.33;1.20;;;11.30;99.90;;;;;;4997299;28;20177;-71
2021/01/22 00:17:48;;;;;;;2.17;0.80;;;11.40;99.90;;;;;;4997258;28;20184;-71
2021/01/22 00:20:14;;;;;;;1.00;0.90;;;11.40;99.90;;;;;;4997134;28;20208;-71
2021/01/22 00:22:39;;;;;;;1.00;0.77;;;11.40;99.90;;;;;;4996921;28;20579;-71
2021/01/22 00:25:05;;;;;;;1.37;0.90;;;11.50;99.90;;;;;;4997176;28;20168;-71
2021/01/22 00:30:52;;;;;;;1.53;0.90;;;11.50;99.90;;;;;;4996832;28;20396;-72
2021/01/22 00:33:18;;;;;;;2.47;0.80;;;11.40;99.90;;;;;;4996765;28;20428;-72
2021/01/22 00:35:43;;;;;;;1.20;0.80;;;11.40;99.90;;;;;;4996804;28;20539;-71
2021/01/22 00:38:09;;;;;;;2.03;0.87;;;11.50;99.90;;;;;;4996957;28;20576;-72
2021/01/22 00:43:56;;;;;;;1.57;1.00;;;11.20;99.90;;;;;;4996726;28;20233;-71
2021/01/22 00:46:22;;;;;;;2.80;1.07;;;11.30;99.90;;;;;;4996884;28;20436;-72
2021/01/22 00:48:48;;;;;;;6.27;1.37;;;11.30;99.90;;;;;;4996793;28;20259;-71
2021/01/22 00:51:13;;;;;;;1.00;0.80;;;11.20;99.90;;;;;;4995805;28;20259;-72
2021/01/22 00:53:39;;;;;;;2.53;0.90;;;11.30;99.90;;;;;;4996675;28;20181;-71
2021/01/22 00:56:05;;;;;;;1.10;1.00;;;11.30;99.90;;;;;;4996482;28;20644;-71
2021/01/22 00:58:31;;;;;;;2.53;1.33;;;11.30;99.90;;;;;;4996382;28;20432;-71
2021/01/22 01:00:56;;;;;;;1.00;0.80;;;11.30;99.90;;;;;;4996505;28;21017;-71
2021/01/22 01:03:22;;;;;;;3.13;1.17;;;11.40;99.90;;;;;;4996259;28;20181;-71
2021/01/22 01:05:47;;;;;;;1.47;0.90;;;11.20;99.90;;;;;;4996483;28;20200;-70
2021/01/22 01:08:13;;;;;;;3.13;1.40;;;11.20;99.90;;;;;;4996202;28;20257;-72
2021/01/22 01:10:38;;;;;;;1.80;1.57;;;11.20;99.90;;;;;;4996420;28;20268;-71
2021/01/22 01:13:04;;;;;;;1.90;1.50;;;11.20;99.90;;;;;;4996422;28;20177;-71
2021/01/22 01:15:30;;;;;;;3.30;1.13;;;11.00;99.90;;;;;;4996344;28;20177;-71
2021/01/22 01:17:55;;;;;;;2.40;0.93;;;11.00;99.90;;;;;;4996251;28;20232;-70
2021/01/22 01:20:21;;;;;;;3.13;1.70;;;10.90;99.90;;;;;;4996161;28;20192;-72
2021/01/22 01:22:47;;;;;;;2.00;1.30;;;10.90;99.90;;;;;;4995899;28;20302;-73
2021/01/22 01:25:12;;;;;;;2.20;1.20;;;10.90;99.90;;;;;;4994680;28;20220;-73
2021/01/22 01:27:38;;;;;;;4.17;1.40;;;10.90;99.90;;;;;;4996078;28;20456;-73
2021/01/22 01:30:04;;;;;;;2.80;1.60;;;10.90;99.90;;;;;;4996309;28;20191;-73
2021/01/22 01:32:30;;;;;;;3.03;1.23;;;10.90;99.90;;;;;;4995729;28;20184;-71
2021/01/22 01:34:56;;;;;;;3.80;1.30;;;10.90;99.90;;;;;;4995958;28;20424;-72
2021/01/22 01:37:21;;;;;;;4.53;1.23;;;10.80;99.90;;;;;;4995564;28;20208;-72
2021/01/22 01:39:47;;;;;;;4.27;1.33;;;10.90;99.90;;;;;;4995552;28;20173;-72
2021/01/22 01:42:12;;;;;;;8.93;1.77;;;10.80;99.90;;;;;;4995455;28;20215;-73
2021/01/22 01:44:38;;;;;;;2.67;1.23;;;10.80;99.90;;;;;;4995801;28;20173;-72
2021/01/22 01:47:03;;;;;;;22.77;1.57;;;10.70;99.90;;;;;;4995742;28;20519;-73
2021/01/22 01:49:30;;;;;;;4.03;1.30;;;10.80;99.90;;;;;;4995591;28;20184;-72
2021/01/22 01:51:56;;;;;;;7.07;1.43;;;10.70;99.90;;;;;;4995614;28;20177;-73
2021/01/22 01:54:22;;;;;;;5.40;1.70;;;10.70;99.90;;;;;;4995586;28;20834;-73
2021/01/22 01:56:48;;;;;;;4.03;1.30;;;10.90;99.90;;;;;;4995492;28;20412;-72
2021/01/22 01:59:16;;;;;;;2.57;1.27;;;10.80;99.90;;;;;;4995436;28;20637;-72
2021/01/22 02:01:44;;;;;;;3.60;1.63;;;10.80;99.90;;;;;;4995247;28;20236;-73
2021/01/22 02:04:11;;;;;;;9.10;2.40;;;10.80;99.90;;;;;;4995117;28;20431;-73
2021/01/22 02:06:36;;;;;;;4.50;1.30;;;10.70;99.90;;;;;;4995323;28;20787;-72
2021/01/22 02:09:02;;;;;;;3.50;1.40;;;10.70;99.90;;;;;;4995246;28;20428;-73
2021/01/22 02:11:29;;;;;;;7.13;1.57;;;10.70;99.90;;;;;;4995040;28;20256;-72
2021/01/22 02:13:56;;;;;;;2.80;1.63;;;10.70;99.90;;;;;;4995158;28;20559;-73
2021/01/22 02:16:23;;;;;;;4.00;1.30;;;10.70;99.90;;;;;;4995103;28;20439;-70
2021/01/22 02:18:51;;;;;;;4.17;1.70;;;10.70;99.90;;;;;;4995112;28;20632;-72
2021/01/22 02:21:33;;;;;;;4.47;1.60;;;10.60;99.90;;;;;;4995021;28;20468;-72
2021/01/22 06:31:16;;;;;;;10.40;5.97;;;6.60;99.90;;;;;;5624236;23;20885;-71
2021/01/22 06:33:41;;;;;;;7.27;6.27;;;6.70;99.90;;;;;;4994235;28;20456;-71
2021/01/22 06:36:09;;;;;;;9.97;7.17;;;6.70;99.90;;;;;;4994101;28;20475;-70
2021/01/22 06:38:38;;;;;;;7.80;6.33;;;6.70;99.90;;;;;;4993932;28;20261;-72
2021/01/22 06:41:04;;;;;;;7.90;6.80;;;6.80;99.90;;;;;;4994136;28;20559;-71
2021/01/22 06:43:30;;;;;;;14.03;7.73;;;6.70;99.90;;;;;;4994164;28;21013;-68
2021/01/22 06:46:01;;;;;;;9.93;8.57;;;6.60;99.90;;;;;;4987314;28;20182;-69
2021/01/22 06:48:27;;;;;;;8.20;6.77;;;6.50;99.90;;;;;;4979516;28;20165;-70
2021/01/22 06:51:13;;;;;;;7.93;7.13;;;6.50;99.90;;;;;;4984505;28;20429;-69
2021/01/22 06:54:02;;;;;;;9.53;7.40;;;6.70;99.90;;;;;;4986983;28;20478;-69
2021/01/22 06:56:28;;;;;;;9.87;7.73;;;6.60;99.90;;;;;;4982940;28;20433;-70
2021/01/22 06:58:53;;;;;;;9.13;8.13;;;6.60;99.90;;;;;;4982355;28;20443;-69
2021/01/22 07:01:33;;;;;;;11.53;8.13;;;6.60;99.90;;;;;;4983429;28;20210;-70
2021/01/22 07:03:58;;;;;;;9.32;8.00;;;6.60;99.90;;;;;;4991856;28;20826;-68
2021/01/22 07:06:38;;;;;;;9.13;8.20;;;6.80;99.90;;;;;;4992807;28;20270;-68
2021/01/22 07:09:04;;;;;;;10.10;7.77;;;6.80;99.90;;;;;;4992852;28;20169;-70
2021/01/22 07:11:52;;;;;;;10.17;8.10;;;6.90;99.90;;;;;;4992981;28;20435;-71
2021/01/22 07:14:32;;;;;;;11.43;8.00;;;6.90;99.90;;;;;;4992909;28;20757;-67
2021/01/22 07:17:00;;;;;;;12.70;7.00;;;7.00;99.90;;;;;;4993097;28;20838;-67
2021/01/22 07:19:27;;;;;;;12.00;8.13;;;7.00;99.90;;;;;;4992909;28;20425;-70
2021/01/22 07:21:53;;;;;;;13.77;8.30;;;6.90;99.90;;;;;;4992648;28;20467;-70
2021/01/22 07:24:20;;;;;;;10.57;7.10;;;6.90;99.90;;;;;;4992434;28;20777;-71
2021/01/22 07:30:17;;;;;;;9.77;7.30;;;7.10;99.90;;;;;;4961638;28;20849;-69
2021/01/22 07:32:44;;;;;;;10.67;7.90;;;7.20;99.90;;;;;;4955140;29;20781;-70
2021/01/22 07:35:20;;;;;;;10.60;7.20;;;7.10;99.90;;;;;;4955367;28;20908;-69
2021/01/22 07:37:47;;;;;;;8.20;6.63;;;7.20;99.90;;;;;;4955372;29;20778;-69
2021/01/22 07:40:12;;;;;;;11.30;6.90;;;7.20;99.90;;;;;;4955273;29;20453;-69
2021/01/22 07:42:39;;;;;;;12.40;7.53;;;7.30;99.90;;;;;;4955357;28;20442;-72
2021/01/22 07:45:13;;;;;;;10.73;7.83;;;7.20;99.90;;;;;;4955021;29;20183;-69
2021/01/22 07:47:41;;;;;;;7.67;6.60;;;7.20;99.90;;;;;;4955277;29;20438;-71
2021/01/22 07:50:11;;;;;;;12.48;8.65;;;7.20;99.90;;;;;;4954035;28;20435;-72
2021/01/22 07:52:41;;;;;;;12.40;7.70;;;7.20;99.90;;;;;;4955547;28;20233;-72
2021/01/22 07:55:15;;;;;;;8.23;7.00;;;7.40;99.90;;;;;;4955172;28;20857;-72
2021/01/22 07:57:40;;;;;;;8.90;6.70;;;7.60;99.90;;;;;;4954995;28;20417;-72
2021/01/22 08:03:43;;;;;;;8.80;5.90;;;7.70;99.90;;;;;;4958901;29;20413;-73
2021/01/22 08:06:09;;;;;;;13.60;6.93;;;7.90;99.90;;;;;;4959420;28;20424;-72
2021/01/22 08:08:34;;;;;;;11.60;6.80;;;7.80;99.90;;;;;;4958795;29;20933;-73
2021/01/22 08:11:15;;;;;;;11.13;7.53;;;7.70;99.90;;;;;;4958497;29;20182;-73
2021/01/22 08:13:44;;;;;;;10.17;5.67;;;7.70;99.90;;;;;;4958765;29;20234;-73
2021/01/22 08:16:10;;;;;;;10.20;7.13;;;7.70;99.90;;;;;;4958691;29;20446;-72
2021/01/22 08:18:38;;;;;;;13.63;6.77;;;7.60;99.90;;;;;;4958462;29;20826;-72
2021/01/22 08:24:25;;;;;;;7.70;6.07;;;7.40;99.90;;;;;;4958229;29;20826;-72
2021/01/22 08:27:01;;;;;;;8.60;6.57;;;7.50;99.90;;;;;;4958096;29;20545;-72
2021/01/22 08:29:29;;;;;;;10.50;6.50;;;7.50;99.90;;;;;;4958553;28;20529;-72
2021/01/22 08:31:56;;;;;;;13.17;6.77;;;7.50;99.90;;;;;;4958067;29;20446;-73
2021/01/22 08:34:23;;;;;;;6.87;5.50;;;7.50;99.90;;;;;;4958379;29;20891;-72
2021/01/22 08:36:50;;;;;;;9.70;6.70;;;7.60;99.90;;;;;;4958077;28;20959;-72
2021/01/22 08:39:15;;;;;;;11.03;8.33;;;7.60;99.90;;;;;;4957820;29;20488;-72
2021/01/22 08:41:41;;;;;;;8.97;6.70;;;7.50;99.90;;;;;;4957930;29;20561;-72
2021/01/22 08:44:07;;;;;;;8.23;6.20;;;7.40;99.90;;;;;;4958142;29;20179;-73
2021/01/22 08:46:32;;;;;;;9.60;5.30;;;7.50;99.90;;;;;;4957842;29;20175;-72
2021/01/22 08:48:58;;;;;;;10.70;6.33;;;7.40;99.90;;;;;;4958132;28;20178;-72
2021/01/22 08:51:28;;;;;;;11.07;6.70;;;7.40;99.90;;;;;;4958034;29;20200;-72
2021/01/22 08:53:55;;;;;;;7.27;5.43;;;7.50;99.90;;;;;;4957730;29;20185;-72
2021/01/22 08:56:24;;;;;;;9.67;6.27;;;7.60;99.90;;;;;;4957589;29;20429;-72
2021/01/22 08:59:06;;;;;;;8.70;6.20;;;7.60;99.90;;;;;;4957490;29;20861;-72
2021/01/22 09:01:47;;;;;;;12.60;6.80;;;7.70;99.90;;;;;;4957955;29;20501;-72
2021/01/22 09:04:24;;;;;;;10.80;6.33;;;7.70;99.90;;;;;;4957754;29;20426;-72
2021/01/22 09:06:52;;;;;;;12.00;6.40;;;7.70;99.90;;;;;;4957484;28;20414;-72
2021/01/22 09:09:36;;;;;;;7.70;6.20;;;7.80;99.90;;;;;;4957669;28;20433;-72
2021/01/22 09:12:11;;;;;;;9.03;6.23;;;7.80;99.90;;;;;;4956895;28;20414;-72
2021/01/22 09:14:53;;;;;;;7.80;5.00;;;7.80;99.90;;;;;;4957587;29;20457;-72
2021/01/22 09:17:40;;;;;;;12.20;5.87;;;7.90;99.90;;;;;;4957592;28;20484;-72
2021/01/22 09:20:17;;;;;;;9.83;6.40;;;7.90;99.90;;;;;;4957293;29;20430;-72
2021/01/22 09:22:44;;;;;;;10.10;6.70;;;7.80;99.90;;;;;;4957458;28;20471;-72
2021/01/22 09:25:14;;;;;;;9.30;6.00;;;7.90;99.90;;;;;;4957031;29;20454;-72
2021/01/22 09:27:41;;;;;;;6.00;5.10;;;7.80;99.90;;;;;;4957049;28;20442;-72
2021/01/22 09:30:12;;;;;;;8.87;6.03;;;7.90;99.90;;;;;;4957318;29;20422;-72
2021/01/22 09:32:39;;;;;;;12.03;6.70;;;7.90;99.90;;;;;;4957397;29;20517;-72
2021/01/22 09:35:06;;;;;;;13.10;6.13;;;8.00;99.90;;;;;;4957176;28;20434;-72
2021/01/22 09:37:32;;;;;;;8.40;5.23;;;8.10;99.90;;;;;;4957213;28;20450;-72
2021/01/22 09:39:57;;;;;;;10.17;4.73;;;8.10;99.90;;;;;;4957134;29;20481;-72
2021/01/22 09:42:23;;;;;;;9.17;5.40;;;8.00;99.90;;;;;;4957053;29;20210;-72
2021/01/22 09:44:49;;;;;;;10.83;6.00;;;7.90;99.90;;;;;;4956868;29;20234;-72
2021/01/22 09:47:14;;;;;;;9.87;5.33;;;7.80;99.90;;;;;;4957016;29;20544;-72
2021/01/22 09:49:40;;;;;;;10.27;6.53;;;7.80;99.90;;;;;;4956992;29;20218;-72
2021/01/22 09:52:06;;;;;;;6.20;4.90;;;7.80;99.90;;;;;;4956941;29;20327;-72
2021/01/22 09:54:31;;;;;;;13.60;6.77;;;7.90;99.90;;;;;;4956858;29;20174;-72
2021/01/22 09:56:57;;;;;;;7.47;5.20;;;7.80;99.90;;;;;;4956521;28;20179;-72
2021/01/22 09:59:22;;;;;;;8.43;5.77;;;7.90;99.90;;;;;;4956807;29;20181;-73
2021/01/22 10:01:48;;;;;;;6.13;5.13;;;8.00;99.90;;;;;;4956753;29;20214;-73
2021/01/22 10:04:14;;;;;;;7.60;5.63;;;8.00;99.90;;;;;;4956732;29;20266;-73
2021/01/22 10:06:39;;;;;;;9.03;4.87;;;8.20;99.90;;;;;;4955188;29;20186;-72
2021/01/22 10:09:09;;;;;;;11.03;6.47;;;8.40;99.90;;;;;;4956627;29;20175;-73
2021/01/22 10:11:35;;;;;;;6.93;4.67;;;8.60;99.90;;;;;;4956844;28;20265;-72
2021/01/22 10:14:00;;;;;;;9.37;6.43;;;8.60;99.90;;;;;;4956491;29;20513;-73
2021/01/22 10:16:26;;;;;;;7.83;4.30;;;8.90;99.90;;;;;;4956271;29;20178;-72
2021/01/22 10:18:53;;;;;;;9.40;4.67;;;9.00;99.90;;;;;;4956485;29;20178;-74
2021/01/22 10:21:21;;;;;;;6.27;4.40;;;9.10;99.90;;;;;;4956330;29;20265;-73
2021/01/22 10:23:50;;;;;;;9.60;5.83;;;9.20;99.90;;;;;;4956166;28;20469;-72
2021/01/22 10:26:16;;;;;;;11.43;5.73;;;9.30;99.90;;;;;;4955993;29;20480;-71
2021/01/22 10:28:42;;;;;;;11.47;6.20;;;9.20;99.90;;;;;;4955794;29;20432;-72
2021/01/22 10:31:08;;;;;;;7.17;5.27;;;9.10;99.90;;;;;;4956178;29;20521;-72
2021/01/22 10:33:34;;;;;;;9.73;5.00;;;9.00;99.90;;;;;;4955801;28;20795;-72
2021/01/22 10:36:01;;;;;;;7.50;5.37;;;8.90;99.90;;;;;;4955732;29;20533;-72
2021/01/22 10:38:27;;;;;;;7.63;4.47;;;8.80;99.90;;;;;;4955791;28;20487;-73
2021/01/22 10:40:54;;;;;;;12.60;5.10;;;8.70;99.90;;;;;;4955884;29;20888;-72
2021/01/22 10:43:20;;;;;;;8.40;5.17;;;8.60;99.90;;;;;;4956090;28;20508;-74
2021/01/22 10:45:45;;;;;;;10.20;4.73;;;8.50;99.90;;;;;;4955675;29;20426;-72
2021/01/22 10:48:11;;;;;;;11.30;4.90;;;8.50;99.90;;;;;;4956182;29;20229;-73
2021/01/22 10:50:36;;;;;;;7.10;4.67;;;8.40;99.90;;;;;;4955672;29;20183;-72
2021/01/22 10:53:02;;;;;;;7.03;5.17;;;8.40;99.90;;;;;;4955848;29;20563;-73
2021/01/22 10:55:28;;;;;;;13.40;5.30;;;8.40;99.90;;;;;;4955833;29;20517;-72
2021/01/22 11:01:15;;;;;;;8.63;4.37;;;8.40;99.90;;;;;;4955506;29;20333;-72
2021/01/22 11:03:41;;;;;;;7.70;4.97;;;8.20;99.90;;;;;;4955710;29;20476;-73
2021/01/22 11:06:06;;;;;;;5.70;4.50;;;8.10;99.90;;;;;;4955529;29;20655;-73
2021/01/22 11:08:32;;;;;;;6.67;5.17;;;8.10;99.90;;;;;;4955783;29;20179;-72
2021/01/22 11:10:58;;;;;;;8.90;5.70;;;8.20;99.90;;;;;;4955601;28;20178;-72
2021/01/22 11:13:23;;;;;;;6.70;4.93;;;8.20;99.90;;;;;;4955678;29;20771;-72
2021/01/22 11:15:49;;;;;;;9.03;5.00;;;8.20;99.90;;;;;;4955384;29;20700;-73
2021/01/22 11:18:16;;;;;;;8.20;5.57;;;8.10;99.90;;;;;;4955634;29;20185;-74
2021/01/22 11:20:41;;;;;;;10.20;5.20;;;8.00;99.90;;;;;;4955606;28;20253;-73
2021/01/22 11:23:07;;;;;;;7.10;4.50;;;8.10;99.90;;;;;;4955617;29;20454;-73
2021/01/22 11:25:33;;;;;;;8.63;4.80;;;8.20;99.90;;;;;;4955375;28;20247;-75
2021/01/22 11:27:58;;;;;;;7.50;5.10;;;8.10;99.90;;;;;;4955532;29;20927;-74
2021/01/22 11:30:24;;;;;;;9.17;5.37;;;8.10;99.90;;;;;;4955474;29;20174;-73
2021/01/22 11:32:49;;;;;;;8.13;5.37;;;8.20;99.90;;;;;;4955297;29;20181;-73
2021/01/22 11:35:15;;;;;;;7.87;5.00;;;8.30;99.90;;;;;;4956809;28;20178;-74
2021/01/22 11:37:41;;;;;;;6.77;4.63;;;8.40;99.90;;;;;;4959569;29;20203;-73
2021/01/22 11:40:09;;;;;;;6.40;4.80;;;8.40;99.90;;;;;;4959261;29;20178;-73
2021/01/22 11:42:34;;;;;;;7.03;5.43;;;8.40;99.90;;;;;;4958933;29;20508;-74
2021/01/22 11:45:00;;;;;;;7.40;4.67;;;8.50;99.90;;;;;;4959251;29;20454;-74
2021/01/22 11:47:25;;;;;;;6.77;5.17;;;8.50;99.90;;;;;;4959226;29;20185;-74
2021/01/22 11:49:51;;;;;;;11.93;4.83;;;8.50;99.90;;;;;;4959160;29;20254;-73
2021/01/22 11:52:17;;;;;;;8.37;5.10;;;8.50;99.90;;;;;;4959348;29;20610;-73
2021/01/22 11:54:43;;;;;;;6.77;4.33;;;8.50;99.90;;;;;;4959119;29;20257;-74
2021/01/22 11:57:09;;;;;;;15.80;4.97;;;8.60;99.90;;;;;;4958655;29;20182;-73
2021/01/22 11:59:34;;;;;;;8.10;5.03;;;8.60;99.90;;;;;;4958955;28;20426;-73
2021/01/22 12:02:00;;;;;;;14.57;5.00;;;8.60;99.90;;;;;;4958730;29;20237;-74
2021/01/22 12:04:26;;;;;;;6.20;4.07;;;8.60;99.90;;;;;;4959666;29;20281;-73
2021/01/22 12:06:51;;;;;;;9.47;4.70;;;8.70;99.90;;;;;;4958583;29;20630;-73
2021/01/22 12:09:17;;;;;;;7.00;4.07;;;8.60;99.90;;;;;;4958568;29;20209;-72
2021/01/22 12:11:43;;;;;;;7.30;4.27;;;8.70;99.90;;;;;;4958760;29;20265;-73
2021/01/22 12:14:09;;;;;;;9.07;4.27;;;8.60;99.90;;;;;;4958032;29;20186;-73
2021/01/22 12:16:34;;;;;;;7.73;5.17;;;8.50;99.90;;;;;;4958526;29;20187;-72
2021/01/22 12:19:00;;;;;;;5.30;4.77;;;8.60;99.90;;;;;;4958479;29;20206;-73
2021/01/22 12:21:25;;;;;;;6.87;4.10;;;8.80;99.90;;;;;;4958255;29;20206;-72
2021/01/22 12:23:51;;;;;;;7.93;4.27;;;8.90;99.90;;;;;;4957844;29;20178;-73
2021/01/22 12:26:16;;;;;;;5.87;4.27;;;8.90;99.90;;;;;;4957975;29;20317;-77
2021/01/22 12:28:42;;;;;;;8.57;4.60;;;9.00;99.90;;;;;;4958403;29;20277;-74
2021/01/22 12:31:08;;;;;;;10.17;4.47;;;9.10;99.90;;;;;;4958382;28;20576;-70
2021/01/22 12:33:35;;;;;;;8.20;5.30;;;9.10;99.90;;;;;;4958319;29;20190;-72
2021/01/22 12:36:00;;;;;;;7.00;4.10;;;9.10;99.90;;;;;;4958237;28;20530;-73
2021/01/22 12:38:26;;;;;;;6.57;4.53;;;9.20;99.90;;;;;;4956735;29;20516;-72
2021/01/22 12:40:52;;;;;;;7.07;4.07;;;9.20;99.90;;;;;;4957842;29;20733;-81
2021/01/22 12:43:18;;;;;;;5.93;5.33;;;9.30;99.90;;;;;;4957972;29;20522;-77
2021/01/22 12:45:43;;;;;;;6.43;4.30;;;9.20;99.90;;;;;;4957826;28;20190;-83
2021/01/22 12:48:09;;;;;;;6.43;4.20;;;9.10;99.90;;;;;;4957079;29;20190;-80
2021/01/22 12:50:35;;;;;;;7.80;4.30;;;9.30;99.90;;;;;;4958133;29;20190;-78
2021/01/22 12:53:01;;;;;;;8.13;4.80;;;9.30;99.90;;;;;;4958083;28;20430;-78
2021/01/22 12:55:26;;;;;;;6.60;4.50;;;9.40;99.90;;;;;;4957953;29;20441;-78
2021/01/22 12:57:53;;;;;;;6.03;4.50;;;9.50;99.90;;;;;;4957998;29;20183;-76
2021/01/22 13:00:19;;;;;;;13.00;5.13;;;9.60;99.90;;;;;;4957819;28;20555;-73
2021/01/22 13:02:45;;;;;;;8.00;4.80;;;9.60;99.90;;;;;;4957614;29;20438;-78
2021/01/22 13:05:12;;;;;;;6.47;4.77;;;9.60;99.90;;;;;;4957632;28;20828;-76
2021/01/22 13:07:39;;;;;;;6.50;4.30;;;9.60;99.90;;;;;;4957765;28;20792;-77
2021/01/22 13:10:06;;;;;;;5.70;3.93;;;9.60;99.90;;;;;;4957770;29;20835;-79
2021/01/22 13:12:31;;;;;;;7.30;3.83;;;9.70;99.90;;;;;;4957274;29;20433;-78
2021/01/22 13:14:57;;;;;;;6.23;4.37;;;9.70;99.90;;;;;;4957378;29;20528;-78
2021/01/22 13:17:23;;;;;;;7.30;4.87;;;9.60;99.90;;;;;;4957678;29;20179;-78
2021/01/22 13:23:10;;;;;;;6.53;3.87;;;9.70;99.90;;;;;;4957198;29;20434;-79
2021/01/22 13:25:36;;;;;;;7.10;4.63;;;9.70;99.90;;;;;;4957150;29;20477;-79
2021/01/22 13:28:02;;;;;;;7.23;3.80;;;9.70;99.90;;;;;;4957360;29;20257;-79
2021/01/22 13:33:49;;;;;;;6.97;4.73;;;9.60;99.90;;;;;;4957438;29;20425;-81
2021/01/22 13:36:15;;;;;;;6.50;4.50;;;9.70;99.90;;;;;;4957007;29;20414;-89
2021/01/22 13:38:40;;;;;;;4.80;4.00;;;9.60;99.90;;;;;;4957304;29;20174;-79
2021/01/22 13:41:06;;;;;;;7.47;4.20;;;9.50;99.90;;;;;;4957130;29;20206;-79
2021/01/22 13:46:54;;;;;;;8.07;3.30;;;9.70;99.90;;;;;;4956672;29;20203;-80
2021/01/22 13:49:19;;;;;;;5.60;3.10;;;10.00;99.90;;;;;;4956670;29;20821;-75
2021/01/22 13:51:45;;;;;;;3.80;3.40;;;10.20;99.90;;;;;;4956628;29;20570;-72
2021/01/22 13:54:10;;;;;;;7.60;3.30;;;10.30;99.90;;;;;;4956785;29;20262;-74
2021/01/22 13:56:36;;;;;;;3.90;3.20;;;10.50;99.90;;;;;;4956813;29;20626;-73
2021/01/22 13:59:04;;;;;;;6.00;3.20;;;10.60;99.90;;;;;;4956849;28;20631;-72
2021/01/22 14:01:29;;;;;;;6.63;3.30;;;10.70;99.90;;;;;;4956620;28;20260;-72
2021/01/22 14:03:55;;;;;;;3.43;2.50;;;10.70;99.90;;;;;;4956536;29;20505;-73
2021/01/22 14:06:20;;;;;;;5.60;2.87;;;10.60;99.90;;;;;;4956444;29;20186;-76
2021/01/22 14:12:08;;;;;;;6.73;2.90;;;10.40;99.90;;;;;;4956269;29;20209;-77
2021/01/22 14:17:55;;;;;;;4.17;3.60;;;10.00;99.90;;;;;;4956227;29;20414;-73
2021/01/22 14:20:21;;;;;;;2.63;2.37;;;9.90;99.90;;;;;;4956103;29;20418;-73
2021/01/22 14:22:46;;;;;;;5.20;2.70;;;9.90;99.90;;;;;;4957249;29;20233;-73
2021/01/22 14:25:12;;;;;;;3.97;2.33;;;9.90;99.90;;;;;;4956019;29;20222;-73
2021/01/22 14:27:38;;;;;;;4.47;3.03;;;9.70;99.90;;;;;;4956170;29;20229;-73
2021/01/22 14:30:04;;;;;;;3.50;2.63;;;9.50;99.90;;;;;;4956176;29;20228;-73
2021/01/22 14:35:51;;;;;;;4.77;3.30;;;9.50;99.90;;;;;;4955826;29;20409;-74
2021/01/22 14:41:39;;;;;;;4.50;2.43;;;9.40;99.90;;;;;;4955719;29;20209;-73
2021/01/22 14:44:05;;;;;;;4.10;2.70;;;9.50;99.90;;;;;;4955892;28;20504;-75
2021/01/22 14:46:31;;;;;;;5.90;2.87;;;9.40;99.90;;;;;;4956015;29;20434;-73
2021/01/22 14:48:56;;;;;;;3.60;3.00;;;9.50;99.90;;;;;;4955683;29;20850;-73
2021/01/22 14:51:22;;;;;;;4.07;2.60;;;9.50;99.90;;;;;;4955931;29;20188;-73
2021/01/22 14:53:47;;;;;;;6.37;4.50;;;9.50;99.90;;;;;;4955781;29;20338;-73
2021/01/22 14:56:13;;;;;;;5.87;3.20;;;9.40;99.90;;;;;;4955684;29;20772;-75
2021/01/22 14:58:38;;;;;;;6.80;3.47;;;9.30;99.90;;;;;;4955755;29;20241;-77
2021/01/22 15:01:04;;;;;;;6.93;3.67;;;9.30;99.90;;;;;;4955544;29;20198;-72
2021/01/22 15:03:29;;;;;;;5.53;3.00;;;9.30;99.90;;;;;;4955414;29;20630;-73
2021/01/22 15:05:55;;;;;;;7.73;3.63;;;9.30;99.90;;;;;;4955772;29;20178;-73
2021/01/22 15:08:21;;;;;;;5.37;3.23;;;9.20;99.90;;;;;;4955939;29;20203;-74
2021/01/22 15:10:46;;;;;;;3.93;2.53;;;9.20;99.90;;;;;;4954803;28;20181;-73
2021/01/22 15:13:12;;;;;;;6.80;3.43;;;9.10;99.90;;;;;;4955707;29;20181;-74
2021/01/22 15:15:38;;;;;;;4.30;3.23;;;9.10;99.90;;;;;;4955659;29;20190;-73
2021/01/22 15:18:04;;;;;;;12.83;3.80;;;8.90;99.90;;;;;;4955427;29;20171;-71
2021/01/22 15:20:29;;;;;;;10.95;3.50;;;9.00;99.90;;;;;;4954276;29;20510;-69
2021/01/22 15:22:55;;;;;;;5.30;2.43;;;9.60;99.90;;;;;;4955568;29;20209;-69
2021/01/22 15:25:21;;;;;;;8.23;3.00;;;10.00;99.90;;;;;;4955363;28;20221;-75
2021/01/22 15:27:46;;;;;;;4.77;2.87;;;10.10;99.90;;;;;;4955518;29;20540;-76
2021/01/22 15:30:12;;;;;;;5.80;2.70;;;10.00;99.90;;;;;;4955530;29;20174;-75
2021/01/22 15:32:38;;;;;;;5.77;2.80;;;9.90;99.90;;;;;;4954046;29;20178;-75
2021/01/22 15:35:04;;;;;;;3.13;2.83;;;9.70;99.90;;;;;;4955093;29;20426;-74
2021/01/22 15:37:32;;;;;;;4.03;2.63;;;9.60;99.90;;;;;;4955083;28;20182;-74
2021/01/22 15:40:01;;;;;;;3.23;2.93;;;9.50;99.90;;;;;;4955404;28;20434;-74
2021/01/22 15:42:27;;;;;;;3.27;2.50;;;9.40;99.90;;;;;;4955382;28;20852;-74
2021/01/22 15:44:52;;;;;;;6.67;2.80;;;9.20;99.90;;;;;;4955332;29;20422;-74
2021/01/22 15:47:18;;;;;;;6.93;3.03;;;9.20;99.90;;;;;;4955291;29;20186;-74
2021/01/22 15:49:45;;;;;;;6.17;3.23;;;9.10;99.90;;;;;;4955269;29;20770;-74
2021/01/22 15:52:11;;;;;;;5.40;2.60;;;9.00;99.90;;;;;;4955273;29;20191;-74
2021/01/22 15:54:37;;;;;;;4.27;2.83;;;9.00;99.90;;;;;;4955277;29;20433;-74
2021/01/22 15:57:02;;;;;;;6.20;2.57;;;8.90;99.90;;;;;;4955160;29;20187;-74
2021/01/22 15:59:28;;;;;;;3.23;2.70;;;8.80;99.90;;;;;;4955267;29;20641;-74
2021/01/22 16:01:53;;;;;;;6.40;2.33;;;8.80;99.90;;;;;;4955207;29;20210;-74
2021/01/22 16:04:19;;;;;;;5.63;3.10;;;8.70;99.90;;;;;;4954902;29;20182;-74
2021/01/22 16:06:44;;;;;;;4.20;3.43;;;8.70;99.90;;;;;;4955191;29;20193;-73
2021/01/22 16:09:10;;;;;;;8.53;3.87;;;8.60;99.90;;;;;;4955005;28;20646;-74
2021/01/22 16:11:35;;;;;;;5.70;3.10;;;8.60;99.90;;;;;;4955420;29;20187;-74
2021/01/22 16:14:01;;;;;;;6.30;3.10;;;8.50;99.90;;;;;;4955133;29;20634;-73
2021/01/22 16:16:26;;;;;;;3.37;2.83;;;8.50;99.90;;;;;;4955059;29;20179;-73
2021/01/22 16:22:14;;;;;;;7.47;3.57;;;8.50;99.90;;;;;;4957628;28;20210;-73
2021/01/22 16:28:15;;;;;;;7.00;3.03;;;8.50;99.90;;;;;;4948920;29;20284;-73
2021/01/22 16:30:40;;;;;;;5.63;3.73;;;8.40;99.90;;;;;;4958077;29;20433;-73
2021/01/22 16:33:06;;;;;;;8.67;4.00;;;8.40;99.90;;;;;;4958318;29;20185;-73
2021/01/22 16:35:31;;;;;;;9.13;3.87;;;8.30;99.90;;;;;;4957301;29;20427;-73
2021/01/22 16:37:58;;;;;;;5.87;3.07;;;8.30;99.90;;;;;;4958302;29;20249;-73
2021/01/22 16:40:24;;;;;;;6.60;4.00;;;8.20;99.90;;;;;;4957662;28;20174;-72
2021/01/22 16:42:49;;;;;;;10.97;4.40;;;8.10;99.90;;;;;;4957964;29;20434;-73
2021/01/22 16:45:15;;;;;;;7.23;4.03;;;8.10;99.90;;;;;;4958046;29;20179;-74
2021/01/22 16:51:02;;;;;;;12.27;5.57;;;7.80;99.90;;;;;;4957845;29;20253;-73
2021/01/22 16:56:49;;;;;;;8.63;5.30;;;7.70;99.90;;;;;;4958107;29;20516;-72
2021/01/22 16:59:15;;;;;;;7.83;5.27;;;7.60;99.90;;;;;;4957307;29;20438;-75
2021/01/22 17:01:40;;;;;;;5.83;4.63;;;7.50;99.90;;;;;;4957745;29;20206;-75
2021/01/22 17:04:06;;;;;;;8.33;5.10;;;7.50;99.90;;;;;;4957662;29;20217;-71
2021/01/22 17:06:31;;;;;;;11.23;5.40;;;7.40;99.90;;;;;;4957553;29;20191;-72
2021/01/22 17:08:57;;;;;;;10.80;5.97;;;7.40;99.90;;;;;;4957724;29;20186;-70
2021/01/22 17:11:23;;;;;;;19.73;8.53;;;7.30;99.90;;;;;;4957287;29;20174;-70
2021/01/22 17:13:49;;;;;;;16.73;9.77;;;7.20;99.90;;;;;;4957403;28;20278;-70
2021/01/22 17:16:14;;;;;;;12.40;9.00;;;7.20;99.90;;;;;;4957553;29;20509;-70
2021/01/22 17:22:03;;;;;;;11.17;7.20;;;7.10;99.90;;;;;;4957521;29;20213;-73
2021/01/22 17:27:50;;;;;;;15.70;8.37;;;7.00;99.90;;;;;;4956968;29;20508;-73
2021/01/22 17:33:38;;;;;;;13.70;8.13;;;6.90;99.90;;;;;;4956382;28;20202;-73
2021/01/22 17:39:26;;;;;;;12.00;8.47;;;6.80;99.90;;;;;;4956905;29;20705;-72
2021/01/22 17:41:51;;;;;;;15.40;9.67;;;6.80;99.90;;;;;;4956907;29;20469;-73
2021/01/22 17:47:39;;;;;;;18.83;8.30;;;6.70;99.90;;;;;;4956785;29;20246;-72
2021/01/22 17:50:05;;;;;;;11.33;8.50;;;6.70;99.90;;;;;;4955717;29;20427;-71
2021/01/22 17:52:31;;;;;;;15.23;8.90;;;6.70;99.90;;;;;;4956865;29;20192;-72
2021/01/22 17:54:56;;;;;;;9.70;7.80;;;6.60;99.90;;;;;;4956780;29;20905;-73
2021/01/22 17:57:22;;;;;;;10.73;8.37;;;6.50;99.90;;;;;;4956415;29;20178;-72
2021/01/22 18:03:09;;;;;;;8.20;6.97;;;6.50;99.90;;;;;;4956582;29;20238;-74
2021/01/22 18:08:57;;;;;;;16.23;8.90;;;6.40;99.90;;;;;;4956395;29;20532;-72
2021/01/22 18:11:22;;;;;;;13.60;8.87;;;6.40;99.90;;;;;;4956494;29;20434;-72
2021/01/22 18:13:48;;;;;;;14.60;9.30;;;6.30;99.90;;;;;;4956530;29;20182;-73
2021/01/22 18:19:35;;;;;;;12.97;10.10;;;6.30;99.90;;;;;;4956119;29;20689;-72
2021/01/22 18:22:00;;;;;;;16.57;9.90;;;6.30;99.90;;;;;;4956090;29;20508;-71